WZZ5ZY LZKZ-LZIB
Flight info
| Callsign | WZZ5ZY |
|---|---|
| Flight time | 0h 36m |
| Altitude | 30000 |
| Route | TAKOS DCT KALIF DCT SLC/N0381F240 N190 NIT |
| Aircraft | A321/M-SDE1E2E3FGIJ1J4RWXY/LB1 |
Departure
| Time | 2026-05-08 13:12 |
|---|---|
| Airport | Košice International Airport (LZKZ) |
Arrival
| Time | 2026-05-08 13:48 |
|---|---|
| Airport | M. R. Štefánik Airport (LZIB) |
| Time | Latitude | Longitude | Altitude | Speed | Heading |
|---|---|---|---|---|---|
| 2026-05-08 12:55 | 48.67242 | 21.23975 | 756 ft | 0 kts | 14° |
| 2026-05-08 13:05 | 48.67252 | 21.23979 | 754 ft | 4 kts | 14° |
| 2026-05-08 13:06 | 48.67282 | 21.24008 | 754 ft | 6 kts | 61° |
| 2026-05-08 13:06 | 48.67280 | 21.24084 | 757 ft | 8 kts | 103° |
| 2026-05-08 13:06 | 48.67268 | 21.24161 | 756 ft | 7 kts | 103° |
| 2026-05-08 13:06 | 48.67256 | 21.24239 | 758 ft | 9 kts | 103° |
| 2026-05-08 13:07 | 48.67240 | 21.24342 | 758 ft | 11 kts | 103° |
| 2026-05-08 13:07 | 48.67221 | 21.24460 | 757 ft | 13 kts | 103° |
| 2026-05-08 13:07 | 48.67199 | 21.24602 | 756 ft | 15 kts | 103° |
| 2026-05-08 13:07 | 48.67162 | 21.24738 | 754 ft | 13 kts | 144° |
| 2026-05-08 13:08 | 48.67068 | 21.24730 | 758 ft | 15 kts | 193° |
| 2026-05-08 13:08 | 48.66962 | 21.24693 | 758 ft | 17 kts | 193° |
| 2026-05-08 13:08 | 48.66839 | 21.24651 | 756 ft | 19 kts | 192° |
| 2026-05-08 13:08 | 48.66706 | 21.24606 | 758 ft | 21 kts | 193° |
| 2026-05-08 13:09 | 48.66560 | 21.24554 | 756 ft | 23 kts | 193° |
| 2026-05-08 13:09 | 48.66401 | 21.24499 | 757 ft | 24 kts | 193° |
| 2026-05-08 13:09 | 48.66231 | 21.24439 | 757 ft | 26 kts | 193° |
| 2026-05-08 13:09 | 48.66051 | 21.24375 | 756 ft | 27 kts | 193° |
| 2026-05-08 13:10 | 48.65862 | 21.24307 | 756 ft | 29 kts | 193° |
| 2026-05-08 13:10 | 48.65663 | 21.24238 | 754 ft | 28 kts | 193° |
| 2026-05-08 13:10 | 48.65494 | 21.24180 | 757 ft | 25 kts | 193° |
| 2026-05-08 13:10 | 48.65318 | 21.24120 | 757 ft | 27 kts | 193° |
| 2026-05-08 13:11 | 48.65134 | 21.24057 | 756 ft | 27 kts | 193° |
| 2026-05-08 13:11 | 48.64961 | 21.23990 | 756 ft | 22 kts | 204° |
| 2026-05-08 13:11 | 48.64901 | 21.23823 | 753 ft | 19 kts | 276° |
| 2026-05-08 13:11 | 48.64979 | 21.23679 | 758 ft | 18 kts | 332° |
| 2026-05-08 13:12 | 48.65089 | 21.23694 | 758 ft | 17 kts | 13° |
| 2026-05-08 13:12 | 48.65427 | 21.23813 | 756 ft | 91 kts | 13° |
| 2026-05-08 13:12 | 48.66287 | 21.24116 | 763 ft | 159 kts | 14° |
| 2026-05-08 13:12 | 48.67374 | 21.24513 | 1552 ft | 155 kts | 14° |
| 2026-05-08 13:13 | 48.68438 | 21.24906 | 2199 ft | 169 kts | 13° |
| 2026-05-08 13:13 | 48.69658 | 21.25327 | 2572 ft | 191 kts | 13° |
| 2026-05-08 13:13 | 48.71029 | 21.25795 | 2987 ft | 211 kts | 12° |
| 2026-05-08 13:13 | 48.72560 | 21.25929 | 3463 ft | 235 kts | 347° |
| 2026-05-08 13:14 | 48.74033 | 21.24690 | 3933 ft | 256 kts | 310° |
| 2026-05-08 13:14 | 48.74753 | 21.22213 | 4698 ft | 265 kts | 274° |
| 2026-05-08 13:14 | 48.74584 | 21.19426 | 5632 ft | 267 kts | 260° |
| 2026-05-08 13:14 | 48.74212 | 21.16661 | 6620 ft | 269 kts | 257° |
| 2026-05-08 13:15 | 48.73786 | 21.13885 | 7600 ft | 271 kts | 257° |
| 2026-05-08 13:15 | 48.73351 | 21.11094 | 8549 ft | 274 kts | 257° |
| 2026-05-08 13:15 | 48.72921 | 21.08275 | 9477 ft | 276 kts | 257° |
| 2026-05-08 13:15 | 48.72497 | 21.05416 | 10310 ft | 282 kts | 258° |
| 2026-05-08 13:16 | 48.72060 | 21.02396 | 10630 ft | 305 kts | 258° |
| 2026-05-08 13:16 | 48.71601 | 20.99164 | 11114 ft | 320 kts | 258° |
| 2026-05-08 13:16 | 48.71133 | 20.95846 | 11864 ft | 325 kts | 258° |
| 2026-05-08 13:16 | 48.70656 | 20.92489 | 12687 ft | 328 kts | 258° |
| 2026-05-08 13:17 | 48.70173 | 20.89103 | 13509 ft | 331 kts | 258° |
| 2026-05-08 13:17 | 48.69685 | 20.85677 | 14248 ft | 335 kts | 258° |
| 2026-05-08 13:17 | 48.69197 | 20.82260 | 14944 ft | 338 kts | 258° |
| 2026-05-08 13:17 | 48.68698 | 20.78764 | 15679 ft | 341 kts | 258° |
| 2026-05-08 13:18 | 48.68196 | 20.75242 | 16431 ft | 344 kts | 258° |
| 2026-05-08 13:18 | 48.67687 | 20.71693 | 17178 ft | 347 kts | 258° |
| 2026-05-08 13:18 | 48.67172 | 20.68112 | 17917 ft | 350 kts | 258° |
| 2026-05-08 13:18 | 48.66651 | 20.64501 | 18611 ft | 353 kts | 258° |
| 2026-05-08 13:19 | 48.66124 | 20.60857 | 18949 ft | 354 kts | 258° |
| 2026-05-08 13:19 | 48.65596 | 20.57224 | 19033 ft | 351 kts | 258° |
| 2026-05-08 13:19 | 48.65076 | 20.53646 | 19053 ft | 347 kts | 258° |
| 2026-05-08 13:19 | 48.64560 | 20.50088 | 19054 ft | 345 kts | 258° |
| 2026-05-08 13:20 | 48.64044 | 20.46546 | 19053 ft | 345 kts | 258° |
| 2026-05-08 13:20 | 48.63527 | 20.43005 | 19052 ft | 345 kts | 258° |
| 2026-05-08 13:20 | 48.63008 | 20.39464 | 19055 ft | 345 kts | 258° |
| 2026-05-08 13:20 | 48.62487 | 20.35930 | 19051 ft | 345 kts | 258° |
| 2026-05-08 13:21 | 48.61961 | 20.32394 | 19048 ft | 345 kts | 258° |
| 2026-05-08 13:21 | 48.61436 | 20.28861 | 19049 ft | 345 kts | 258° |
| 2026-05-08 13:21 | 48.60911 | 20.25329 | 19034 ft | 345 kts | 258° |
| 2026-05-08 13:21 | 48.60384 | 20.21794 | 19033 ft | 345 kts | 258° |
| 2026-05-08 13:22 | 48.59859 | 20.18256 | 19034 ft | 346 kts | 258° |
| 2026-05-08 13:22 | 48.59333 | 20.14711 | 19035 ft | 346 kts | 258° |
| 2026-05-08 13:22 | 48.58803 | 20.11165 | 19037 ft | 346 kts | 258° |
| 2026-05-08 13:22 | 48.58271 | 20.07619 | 19040 ft | 346 kts | 258° |
| 2026-05-08 13:23 | 48.57737 | 20.04071 | 19040 ft | 347 kts | 258° |
| 2026-05-08 13:23 | 48.57202 | 20.00520 | 19044 ft | 347 kts | 257° |
| 2026-05-08 13:23 | 48.56666 | 19.96969 | 19047 ft | 347 kts | 257° |
| 2026-05-08 13:23 | 48.56130 | 19.93419 | 19046 ft | 347 kts | 257° |
| 2026-05-08 13:24 | 48.55593 | 19.89871 | 19050 ft | 347 kts | 257° |
| 2026-05-08 13:24 | 48.55054 | 19.86326 | 19053 ft | 347 kts | 257° |
| 2026-05-08 13:24 | 48.54521 | 19.82831 | 19061 ft | 346 kts | 257° |
| 2026-05-08 13:24 | 48.53980 | 19.79290 | 19063 ft | 346 kts | 257° |
| 2026-05-08 13:25 | 48.53440 | 19.75753 | 19062 ft | 346 kts | 257° |
| 2026-05-08 13:25 | 48.52900 | 19.72223 | 19058 ft | 345 kts | 257° |
| 2026-05-08 13:25 | 48.52359 | 19.68692 | 19057 ft | 345 kts | 257° |
| 2026-05-08 13:25 | 48.51816 | 19.65171 | 19055 ft | 345 kts | 257° |
| 2026-05-08 13:26 | 48.51268 | 19.61650 | 19053 ft | 345 kts | 257° |
| 2026-05-08 13:26 | 48.50720 | 19.58131 | 19043 ft | 345 kts | 257° |
| 2026-05-08 13:26 | 48.50210 | 19.54599 | 19042 ft | 345 kts | 259° |
| 2026-05-08 13:26 | 48.49781 | 19.51044 | 19044 ft | 345 kts | 261° |
| 2026-05-08 13:27 | 48.49394 | 19.47478 | 19045 ft | 345 kts | 261° |
| 2026-05-08 13:27 | 48.49018 | 19.43901 | 19047 ft | 345 kts | 261° |
| 2026-05-08 13:27 | 48.48640 | 19.40330 | 19041 ft | 345 kts | 261° |
| 2026-05-08 13:27 | 48.48252 | 19.36761 | 19043 ft | 345 kts | 261° |
| 2026-05-08 13:28 | 48.47853 | 19.33199 | 19046 ft | 345 kts | 260° |
| 2026-05-08 13:28 | 48.47443 | 19.29633 | 19045 ft | 345 kts | 260° |
| 2026-05-08 13:28 | 48.47029 | 19.26067 | 19044 ft | 345 kts | 260° |
| 2026-05-08 13:28 | 48.46613 | 19.22503 | 19045 ft | 346 kts | 260° |
| 2026-05-08 13:29 | 48.46193 | 19.18931 | 19045 ft | 346 kts | 260° |
| 2026-05-08 13:29 | 48.45771 | 19.15361 | 19046 ft | 346 kts | 260° |
| 2026-05-08 13:29 | 48.45350 | 19.11796 | 19051 ft | 346 kts | 260° |
| 2026-05-08 13:29 | 48.44888 | 19.08237 | 19049 ft | 346 kts | 258° |
| 2026-05-08 13:30 | 48.44382 | 19.04743 | 19050 ft | 346 kts | 257° |
| 2026-05-08 13:30 | 48.43836 | 19.01170 | 19052 ft | 346 kts | 257° |
| 2026-05-08 13:30 | 48.43287 | 18.97642 | 19052 ft | 346 kts | 257° |
| 2026-05-08 13:30 | 48.42740 | 18.94115 | 19052 ft | 346 kts | 257° |
| 2026-05-08 13:31 | 48.42198 | 18.90587 | 19051 ft | 346 kts | 257° |
| 2026-05-08 13:31 | 48.41661 | 18.87059 | 19052 ft | 346 kts | 257° |
| 2026-05-08 13:31 | 48.41131 | 18.83533 | 19062 ft | 346 kts | 257° |
| 2026-05-08 13:31 | 48.40608 | 18.80049 | 19051 ft | 346 kts | 257° |
| 2026-05-08 13:32 | 48.40079 | 18.76519 | 19044 ft | 346 kts | 257° |
| 2026-05-08 13:32 | 48.39548 | 18.72987 | 19047 ft | 346 kts | 257° |
| 2026-05-08 13:32 | 48.39014 | 18.69451 | 19052 ft | 347 kts | 257° |
| 2026-05-08 13:32 | 48.38477 | 18.65918 | 19050 ft | 347 kts | 257° |
| 2026-05-08 13:33 | 48.37938 | 18.62385 | 19052 ft | 347 kts | 257° |
| 2026-05-08 13:33 | 48.37398 | 18.58853 | 19054 ft | 347 kts | 257° |
| 2026-05-08 13:33 | 48.36855 | 18.55318 | 19055 ft | 347 kts | 257° |
| 2026-05-08 13:33 | 48.36310 | 18.51783 | 19058 ft | 347 kts | 257° |
| 2026-05-08 13:34 | 48.35763 | 18.48233 | 19049 ft | 352 kts | 257° |
| 2026-05-08 13:34 | 48.35210 | 18.44636 | 19046 ft | 354 kts | 257° |
| 2026-05-08 13:34 | 48.34656 | 18.41024 | 19037 ft | 353 kts | 257° |
| 2026-05-08 13:34 | 48.34113 | 18.37467 | 18650 ft | 347 kts | 257° |
| 2026-05-08 13:35 | 48.33341 | 18.34084 | 18381 ft | 338 kts | 242° |
| 2026-05-08 13:35 | 48.32014 | 18.31294 | 18111 ft | 322 kts | 231° |
| 2026-05-08 13:35 | 48.30579 | 18.28741 | 17514 ft | 317 kts | 231° |
| 2026-05-08 13:35 | 48.29162 | 18.26236 | 16669 ft | 311 kts | 231° |
| 2026-05-08 13:36 | 48.27755 | 18.23754 | 16285 ft | 314 kts | 230° |
| 2026-05-08 13:36 | 48.26336 | 18.21249 | 15887 ft | 317 kts | 230° |
| 2026-05-08 13:36 | 48.24910 | 18.18738 | 15485 ft | 315 kts | 230° |
| 2026-05-08 13:36 | 48.23495 | 18.16254 | 15092 ft | 312 kts | 230° |
| 2026-05-08 13:37 | 48.22090 | 18.13785 | 14699 ft | 310 kts | 230° |
| 2026-05-08 13:37 | 48.20696 | 18.11330 | 14316 ft | 309 kts | 230° |
| 2026-05-08 13:37 | 48.19305 | 18.08886 | 13928 ft | 307 kts | 230° |
| 2026-05-08 13:37 | 48.17924 | 18.06462 | 13518 ft | 305 kts | 230° |
| 2026-05-08 13:38 | 48.16548 | 18.04051 | 13092 ft | 303 kts | 230° |
| 2026-05-08 13:38 | 48.15181 | 18.01658 | 12678 ft | 301 kts | 230° |
| 2026-05-08 13:38 | 48.13826 | 17.99282 | 12266 ft | 299 kts | 230° |
| 2026-05-08 13:38 | 48.12479 | 17.96922 | 11858 ft | 298 kts | 230° |
| 2026-05-08 13:39 | 48.11137 | 17.94573 | 11459 ft | 296 kts | 230° |
| 2026-05-08 13:39 | 48.09802 | 17.92241 | 11058 ft | 294 kts | 230° |
| 2026-05-08 13:39 | 48.08923 | 17.90706 | 10797 ft | 293 kts | 230° |
| 2026-05-08 13:39 | 48.07154 | 17.87624 | 10275 ft | 291 kts | 230° |
| 2026-05-08 13:40 | 48.06283 | 17.86109 | 10020 ft | 290 kts | 230° |
| 2026-05-08 13:40 | 48.04970 | 17.83831 | 9607 ft | 288 kts | 230° |
| 2026-05-08 13:40 | 48.03662 | 17.81566 | 9182 ft | 287 kts | 231° |
| 2026-05-08 13:40 | 48.02365 | 17.79317 | 8762 ft | 285 kts | 231° |
| 2026-05-08 13:41 | 48.01073 | 17.77076 | 8361 ft | 284 kts | 231° |
| 2026-05-08 13:41 | 47.99827 | 17.74806 | 7947 ft | 281 kts | 238° |
| 2026-05-08 13:41 | 47.98873 | 17.72275 | 7533 ft | 279 kts | 247° |
| 2026-05-08 13:41 | 47.98250 | 17.69555 | 7151 ft | 277 kts | 255° |
| 2026-05-08 13:42 | 47.97736 | 17.66789 | 6752 ft | 276 kts | 256° |
| 2026-05-08 13:42 | 47.97221 | 17.64028 | 6372 ft | 276 kts | 256° |
| 2026-05-08 13:42 | 47.96707 | 17.61275 | 5956 ft | 275 kts | 256° |
| 2026-05-08 13:42 | 47.96226 | 17.58526 | 5545 ft | 273 kts | 263° |
| 2026-05-08 13:43 | 47.96211 | 17.55718 | 5146 ft | 270 kts | 280° |
| 2026-05-08 13:43 | 47.96776 | 17.53094 | 4954 ft | 260 kts | 298° |
| 2026-05-08 13:43 | 47.97794 | 17.50905 | 4977 ft | 255 kts | 313° |
| 2026-05-08 13:43 | 47.99025 | 17.49012 | 4974 ft | 257 kts | 314° |
| 2026-05-08 13:44 | 48.00278 | 17.47096 | 4730 ft | 258 kts | 314° |
| 2026-05-08 13:44 | 48.01526 | 17.45179 | 4402 ft | 256 kts | 314° |
| 2026-05-08 13:44 | 48.02763 | 17.43277 | 4060 ft | 254 kts | 314° |
| 2026-05-08 13:44 | 48.03991 | 17.41386 | 3729 ft | 253 kts | 314° |
| 2026-05-08 13:45 | 48.05210 | 17.39509 | 3396 ft | 251 kts | 314° |
| 2026-05-08 13:45 | 48.06419 | 17.37646 | 3056 ft | 249 kts | 314° |
| 2026-05-08 13:45 | 48.07616 | 17.35800 | 2728 ft | 247 kts | 314° |
| 2026-05-08 13:45 | 48.08775 | 17.34012 | 2420 ft | 227 kts | 314° |
| 2026-05-08 13:46 | 48.09814 | 17.32408 | 2133 ft | 200 kts | 314° |
| 2026-05-08 13:46 | 48.10717 | 17.31013 | 1896 ft | 176 kts | 314° |
| 2026-05-08 13:46 | 48.11513 | 17.29782 | 1655 ft | 154 kts | 315° |
| 2026-05-08 13:46 | 48.12227 | 17.28677 | 1450 ft | 145 kts | 315° |
| 2026-05-08 13:47 | 48.12919 | 17.27609 | 1259 ft | 142 kts | 314° |
| 2026-05-08 13:47 | 48.13600 | 17.26556 | 1044 ft | 140 kts | 313° |
| 2026-05-08 13:47 | 48.14268 | 17.25530 | 843 ft | 136 kts | 311° |
| 2026-05-08 13:47 | 48.14916 | 17.24517 | 680 ft | 134 kts | 311° |
| 2026-05-08 13:48 | 48.15561 | 17.23514 | 504 ft | 134 kts | 311° |
| 2026-05-08 13:48 | 48.16184 | 17.22547 | 422 ft | 116 kts | 314° |
| 2026-05-08 13:48 | 48.16627 | 17.21862 | 424 ft | 67 kts | 314° |
| 2026-05-08 13:48 | 48.16891 | 17.21450 | 426 ft | 47 kts | 314° |
| 2026-05-08 13:49 | 48.17087 | 17.21149 | 424 ft | 25 kts | 314° |
| 2026-05-08 13:49 | 48.17124 | 17.21014 | 424 ft | 13 kts | 241° |
| 2026-05-08 13:49 | 48.17061 | 17.20915 | 421 ft | 13 kts | 224° |
| 2026-05-08 13:49 | 48.17058 | 17.20822 | 417 ft | 9 kts | 309° |
| 2026-05-08 13:50 | 48.17106 | 17.20741 | 428 ft | 12 kts | 314° |
| 2026-05-08 13:50 | 48.17160 | 17.20637 | 424 ft | 14 kts | 291° |
| 2026-05-08 13:50 | 48.17122 | 17.20507 | 424 ft | 16 kts | 224° |
| 2026-05-08 13:50 | 48.17042 | 17.20393 | 428 ft | 7 kts | 224° |
| 2026-05-08 13:51 | 48.17032 | 17.20378 | 428 ft | 3 kts | 224° |
| 2026-05-08 13:51 | 48.17010 | 17.20348 | 424 ft | 6 kts | 224° |
| 2026-05-08 13:51 | 48.17009 | 17.20296 | 428 ft | 6 kts | 302° |
| 2026-05-08 13:51 | 48.17032 | 17.20260 | 422 ft | 2 kts | 315° |
| 2026-05-08 13:52 | 48.17032 | 17.20259 | 422 ft | 0 kts | 315° |